createdAt,value
2023-02-17T00:00:33.589Z,4.45
2023-02-17T00:03:00.676Z,4.80
2023-02-17T00:05:27.770Z,4.65
2023-02-17T00:07:54.838Z,4.70
2023-02-17T00:10:23.513Z,4.78
2023-02-17T00:12:50.635Z,4.72
2023-02-17T00:15:17.713Z,4.47
2023-02-17T00:17:44.965Z,5.03
2023-02-17T00:20:12.087Z,4.88
2023-02-17T00:22:39.248Z,4.50
2023-02-17T00:25:06.385Z,4.68
2023-02-17T00:27:33.547Z,4.35
2023-02-17T00:30:00.656Z,4.30
2023-02-17T00:32:27.758Z,4.32
2023-02-17T00:34:56.300Z,5.05
2023-02-17T00:37:23.370Z,4.60
2023-02-17T00:39:50.580Z,4.68
2023-02-17T00:42:17.663Z,4.80
2023-02-17T00:44:44.755Z,4.68
2023-02-17T00:49:58.878Z,4.53
2023-02-17T00:52:25.959Z,4.65
2023-02-17T00:54:53.079Z,4.80
2023-02-17T00:57:20.178Z,4.78
2023-02-17T00:59:47.272Z,4.22
2023-02-17T01:02:14.372Z,4.90
2023-02-17T01:04:41.583Z,4.68
2023-02-17T01:07:08.662Z,4.55
2023-02-17T01:09:35.729Z,5.10
2023-02-17T01:12:04.439Z,4.72
2023-02-17T01:14:31.593Z,4.57
2023-02-17T01:16:58.682Z,5.13
2023-02-17T01:22:12.782Z,4.70
2023-02-17T01:24:39.896Z,4.35
2023-02-17T01:27:06.974Z,4.57
2023-02-17T01:29:34.052Z,4.50
2023-02-17T01:32:01.263Z,4.43
2023-02-17T01:34:28.394Z,4.70
2023-02-17T01:36:55.469Z,4.72
2023-02-17T01:39:22.532Z,4.60
2023-02-17T01:41:49.608Z,4.50
2023-02-17T01:44:16.730Z,4.50
2023-02-17T01:46:43.853Z,4.75
2023-02-17T01:49:10.962Z,4.70
2023-02-17T01:51:38.012Z,4.32
2023-02-17T01:54:05.082Z,4.30
2023-02-17T01:56:32.137Z,4.57
2023-02-17T01:58:59.252Z,4.28
2023-02-17T02:04:13.385Z,4.55
2023-02-17T02:06:40.469Z,4.90
2023-02-17T02:09:07.685Z,4.60
2023-02-17T02:11:34.764Z,4.60
2023-02-17T02:14:01.914Z,4.68
2023-02-17T02:16:29.871Z,4.50
2023-02-17T02:18:56.967Z,4.57
2023-02-17T02:21:24.122Z,4.43
2023-02-17T02:23:51.457Z,4.78
2023-02-17T02:26:18.590Z,4.90
2023-02-17T02:28:45.709Z,4.50
2023-02-17T02:31:12.861Z,4.28
2023-02-17T02:33:40.130Z,4.40
2023-02-17T02:36:07.437Z,4.40
2023-02-17T02:41:21.628Z,4.40
2023-02-17T02:43:48.698Z,4.32
2023-02-17T02:46:15.773Z,4.43
2023-02-17T02:48:42.958Z,4.45
2023-02-17T02:51:10.040Z,4.72
2023-02-17T02:53:37.153Z,4.40
2023-02-17T02:56:04.612Z,4.40
2023-02-17T02:58:31.833Z,4.50
2023-02-17T03:00:59.730Z,4.28
2023-02-17T03:03:26.808Z,4.45
2023-02-17T03:05:54.037Z,4.80
2023-02-17T03:08:21.115Z,4.45
2023-02-17T03:10:48.225Z,4.43
2023-02-17T03:13:15.369Z,4.22
2023-02-17T03:15:42.490Z,4.30
2023-02-17T03:18:09.576Z,4.43
2023-02-17T03:20:36.669Z,4.70
2023-02-17T03:23:03.759Z,4.50
2023-02-17T03:25:30.829Z,4.10
2023-02-17T03:27:57.910Z,4.20
2023-02-17T03:33:12.032Z,4.35
2023-02-17T03:35:39.108Z,3.97
2023-02-17T03:38:06.263Z,4.25
2023-02-17T03:40:33.377Z,4.28
2023-02-17T03:43:00.439Z,4.22
2023-02-17T03:45:27.508Z,4.07
2023-02-17T03:47:54.578Z,4.40
2023-02-17T03:50:24.063Z,4.25
2023-02-17T03:52:51.185Z,4.13
2023-02-17T03:55:18.279Z,4.40
2023-02-17T03:57:45.348Z,4.45
2023-02-17T04:00:12.467Z,3.90
2023-02-17T04:02:41.571Z,4.47
2023-02-17T04:05:09.972Z,4.18
2023-02-17T04:07:37.041Z,4.00
2023-02-17T04:10:06.294Z,4.18
2023-02-17T04:12:34.248Z,4.50
2023-02-17T04:15:01.337Z,4.38
2023-02-17T04:17:28.814Z,4.18
2023-02-17T04:19:55.997Z,4.28
2023-02-17T04:22:23.073Z,4.05
2023-02-17T04:24:50.154Z,4.18
2023-02-17T04:27:17.249Z,4.20
2023-02-17T04:29:44.321Z,4.38
2023-02-17T04:32:11.409Z,4.00
2023-02-17T04:34:38.505Z,3.92
2023-02-17T04:37:05.564Z,3.90
2023-02-17T04:39:32.644Z,4.00
2023-02-17T04:41:59.702Z,3.60
2023-02-17T04:44:26.782Z,3.83
2023-02-17T04:46:53.950Z,4.20
2023-02-17T04:49:21.050Z,3.80
2023-02-17T04:51:48.133Z,4.35
2023-02-17T04:54:15.271Z,4.10
2023-02-17T04:56:42.381Z,4.10
2023-02-17T04:59:11.986Z,4.00
2023-02-17T05:01:39.137Z,3.80
2023-02-17T05:04:06.234Z,4.05
2023-02-17T05:06:33.297Z,4.10
2023-02-17T05:09:00.436Z,3.75
2023-02-17T05:11:27.574Z,3.88
2023-02-17T05:13:54.654Z,4.00
2023-02-17T05:16:21.800Z,3.70
2023-02-17T05:18:48.962Z,3.70
2023-02-17T05:21:16.036Z,3.70
2023-02-17T05:23:43.232Z,4.28
2023-02-17T05:26:10.438Z,3.85
2023-02-17T05:28:37.511Z,3.95
2023-02-17T05:31:04.690Z,4.35
2023-02-17T05:33:31.779Z,3.60
2023-02-17T05:35:58.863Z,3.72
2023-02-17T05:41:13.052Z,3.70
2023-02-17T05:43:40.137Z,3.70
2023-02-17T05:46:07.520Z,3.95
2023-02-17T05:48:34.762Z,4.00
2023-02-17T05:51:01.837Z,3.70
2023-02-17T05:53:28.909Z,3.60
2023-02-17T05:55:55.979Z,3.45
2023-02-17T05:58:23.094Z,3.72
2023-02-17T06:00:50.189Z,3.30
2023-02-17T06:03:17.313Z,3.55
2023-02-17T06:05:44.444Z,3.78
2023-02-17T06:08:11.577Z,3.47
2023-02-17T06:10:38.693Z,3.40
2023-02-17T06:13:05.770Z,3.58
2023-02-17T06:15:33.850Z,3.40
2023-02-17T06:18:00.910Z,3.67
2023-02-17T06:20:28.024Z,3.70
2023-02-17T06:22:55.091Z,3.55
2023-02-17T06:25:22.151Z,3.80
2023-02-17T06:27:49.300Z,3.53
2023-02-17T06:30:17.579Z,3.50
2023-02-17T06:32:44.740Z,3.45
2023-02-17T06:35:11.828Z,3.50
2023-02-17T06:37:38.894Z,3.60
2023-02-17T06:40:05.968Z,3.45
2023-02-17T06:42:33.068Z,3.33
2023-02-17T06:45:00.887Z,3.85
2023-02-17T06:47:28.012Z,3.35
2023-02-17T06:49:55.232Z,3.60
2023-02-17T06:52:22.336Z,3.40
2023-02-17T06:54:49.408Z,3.65
2023-02-17T06:57:16.489Z,3.45
2023-02-17T06:59:43.568Z,3.47
2023-02-17T07:02:12.331Z,3.22
2023-02-17T07:04:39.493Z,3.50
2023-02-17T07:07:06.561Z,3.38
2023-02-17T07:09:33.654Z,3.17
2023-02-17T07:12:00.768Z,3.08
2023-02-17T07:17:15.329Z,3.30
2023-02-17T07:19:42.415Z,3.50
2023-02-17T07:22:09.487Z,3.20
2023-02-17T07:24:36.589Z,3.50
2023-02-17T07:27:03.738Z,3.22
2023-02-17T07:29:30.834Z,3.20
2023-02-17T07:31:57.976Z,3.10
2023-02-17T07:39:19.030Z,3.20
2023-02-17T07:41:46.104Z,3.20
2023-02-17T07:44:13.156Z,3.10
2023-02-17T07:46:40.236Z,3.40
2023-02-17T07:49:07.361Z,3.10
2023-02-17T07:51:34.489Z,2.72
2023-02-17T07:54:01.554Z,3.15
2023-02-17T07:59:17.209Z,3.00
2023-02-17T08:01:44.356Z,3.03
2023-02-17T08:04:11.624Z,3.00
2023-02-17T08:06:39.815Z,3.10
2023-02-17T08:12:11.125Z,3.00
2023-02-17T08:14:38.716Z,2.80
2023-02-17T08:17:05.920Z,2.97
2023-02-17T08:19:47.105Z,3.22
2023-02-17T08:22:16.188Z,2.60
2023-02-17T08:24:43.286Z,2.95
2023-02-17T08:27:10.404Z,2.80
2023-02-17T08:29:37.516Z,2.67
2023-02-17T08:32:04.754Z,2.83
2023-02-17T08:34:36.242Z,2.85
2023-02-17T08:37:03.575Z,2.90
2023-02-17T08:39:30.697Z,2.80
2023-02-17T08:41:57.796Z,2.65
2023-02-17T08:44:24.916Z,2.80
2023-02-17T08:46:52.464Z,2.75
2023-02-17T08:49:19.562Z,2.70
2023-02-17T08:51:46.699Z,2.50
2023-02-17T08:54:13.825Z,2.65
2023-02-17T08:56:40.991Z,2.88
2023-02-17T08:59:08.294Z,2.70
2023-02-17T09:01:35.482Z,2.70
2023-02-17T09:04:02.661Z,2.78
2023-02-17T09:06:29.795Z,2.75
2023-02-17T09:08:56.876Z,2.53
2023-02-17T09:11:24.924Z,2.70
2023-02-17T09:13:52.060Z,2.47
2023-02-17T09:16:20.914Z,2.53
2023-02-17T09:18:48.099Z,2.55
2023-02-17T09:21:15.244Z,2.80
2023-02-17T09:23:42.346Z,2.50
2023-02-17T09:26:10.093Z,2.38
2023-02-17T09:28:37.309Z,2.47
2023-02-17T09:31:04.448Z,2.80
2023-02-17T09:36:18.547Z,2.60
2023-02-17T09:38:45.732Z,2.60
2023-02-17T09:41:15.207Z,2.65
2023-02-17T09:43:42.331Z,2.50
2023-02-17T09:46:09.760Z,2.50
2023-02-17T09:48:36.958Z,2.55
2023-02-17T09:51:04.134Z,2.50
2023-02-17T09:58:45.619Z,2.65
2023-02-17T10:03:59.814Z,2.47
2023-02-17T10:09:13.976Z,2.30
2023-02-17T10:11:41.168Z,2.38
2023-02-17T10:14:08.269Z,2.60
2023-02-17T10:19:22.445Z,2.08
2023-02-17T10:21:49.532Z,2.03
2023-02-17T10:27:03.728Z,2.60
2023-02-17T10:32:20.061Z,2.20
2023-02-17T10:34:47.474Z,2.20
2023-02-17T10:40:02.679Z,2.13
2023-02-17T10:45:17.140Z,2.10
2023-02-17T10:47:44.454Z,2.10
2023-02-17T10:55:20.935Z,2.03
2023-02-17T10:57:49.648Z,2.08
2023-02-17T11:03:03.707Z,1.95
2023-02-17T11:05:30.889Z,2.20
2023-02-17T11:10:26.104Z,2.10
2023-02-17T11:12:55.872Z,2.20
2023-02-17T11:15:22.942Z,1.77
2023-02-17T11:17:50.171Z,2.22
2023-02-17T11:20:17.348Z,1.90
2023-02-17T11:22:45.848Z,2.10
2023-02-17T11:25:12.938Z,2.15
2023-02-17T11:27:40.026Z,1.90
2023-02-17T11:30:07.129Z,1.90
2023-02-17T11:32:34.251Z,2.20
2023-02-17T11:35:04.750Z,1.90
2023-02-17T11:37:32.925Z,2.08
2023-02-17T11:40:00.359Z,1.90
2023-02-17T11:42:27.486Z,1.80
2023-02-17T11:44:54.630Z,1.80
2023-02-17T11:47:21.697Z,1.88
2023-02-17T11:49:48.791Z,2.08
2023-02-17T11:52:15.872Z,2.20
2023-02-17T11:54:42.949Z,1.85
2023-02-17T11:57:10.014Z,1.92
2023-02-17T11:59:37.125Z,1.90
2023-02-17T12:02:04.987Z,1.60
2023-02-17T12:04:32.073Z,1.85
2023-02-17T12:06:59.184Z,2.05
2023-02-17T12:09:26.300Z,2.10
2023-02-17T12:11:53.409Z,1.70
2023-02-17T12:14:20.508Z,2.00
2023-02-17T12:16:47.631Z,1.80
2023-02-17T12:19:14.829Z,1.80
2023-02-17T12:21:41.889Z,1.85
2023-02-17T12:24:09.004Z,2.00
2023-02-17T12:26:36.113Z,1.88
2023-02-17T12:29:03.285Z,1.80
2023-02-17T12:31:30.420Z,2.00
2023-02-17T12:33:58.320Z,1.98
2023-02-17T12:36:25.438Z,1.88
2023-02-17T12:38:52.554Z,2.00
2023-02-17T12:41:20.144Z,2.00
2023-02-17T12:43:49.245Z,2.08
2023-02-17T12:46:16.580Z,1.73
2023-02-17T12:48:43.730Z,1.77
2023-02-17T12:51:10.805Z,2.00
2023-02-17T12:53:37.877Z,1.80
2023-02-17T12:56:05.208Z,1.70
2023-02-17T13:00:59.532Z,1.90
2023-02-17T13:03:26.685Z,1.70
2023-02-17T13:05:53.765Z,1.73
2023-02-17T13:08:20.830Z,1.70
2023-02-17T13:10:47.981Z,1.60
2023-02-17T13:13:15.047Z,1.60
2023-02-17T13:15:43.010Z,1.63
2023-02-17T13:18:10.154Z,1.52
2023-02-17T13:20:37.248Z,1.58
2023-02-17T13:23:04.329Z,1.70
2023-02-17T13:28:18.954Z,1.50
2023-02-17T13:30:46.135Z,2.10
2023-02-17T13:36:00.989Z,1.65
2023-02-17T13:38:28.073Z,2.08
2023-02-17T13:40:55.154Z,2.15
2023-02-17T13:48:18.078Z,2.03
2023-02-17T13:50:45.141Z,2.10
2023-02-17T13:53:12.333Z,1.95
2023-02-17T13:55:41.700Z,2.00
2023-02-17T13:58:08.782Z,1.98
2023-02-17T14:00:35.854Z,2.35
2023-02-17T14:03:02.942Z,1.98
2023-02-17T14:05:30.124Z,1.90
2023-02-17T14:07:57.213Z,2.15
2023-02-17T14:10:24.346Z,2.10
2023-02-17T14:12:51.453Z,1.98
2023-02-17T14:15:18.536Z,1.83
2023-02-17T14:17:45.604Z,1.80
2023-02-17T14:20:12.685Z,1.65
2023-02-17T14:22:39.755Z,1.80
2023-02-17T14:25:06.914Z,1.77
2023-02-17T14:30:20.996Z,1.70
2023-02-17T14:32:48.285Z,1.70
2023-02-17T14:35:15.839Z,2.00
2023-02-17T14:43:16.939Z,1.70
2023-02-17T14:45:44.065Z,1.80
2023-02-17T14:48:11.187Z,1.60
2023-02-17T14:50:42.401Z,1.70
2023-02-17T14:53:09.536Z,1.60
2023-02-17T14:55:36.691Z,1.60
2023-02-17T15:00:53.691Z,1.50
2023-02-17T15:06:08.147Z,1.55
2023-02-17T15:08:35.390Z,1.60
2023-02-17T15:11:02.486Z,1.40
2023-02-17T15:15:58.797Z,1.95
2023-02-17T15:18:27.966Z,1.98
2023-02-17T15:20:55.466Z,2.03
2023-02-17T15:23:22.577Z,2.20
2023-02-17T15:25:49.679Z,2.30
2023-02-17T15:28:16.771Z,2.10
2023-02-17T15:30:43.862Z,2.15
2023-02-17T15:33:10.954Z,2.28
2023-02-17T15:35:38.011Z,2.13
2023-02-17T15:38:05.119Z,2.42
2023-02-17T15:43:03.366Z,2.35
2023-02-17T15:48:17.894Z,2.50
2023-02-17T15:50:45.020Z,2.58
2023-02-17T15:53:12.152Z,2.42
2023-02-17T15:55:39.240Z,2.90
2023-02-17T15:58:06.541Z,3.47
2023-02-17T16:03:20.654Z,3.03
2023-02-17T16:05:48.050Z,3.00
2023-02-17T16:08:15.121Z,3.10
2023-02-17T16:10:45.404Z,2.92
2023-02-17T16:13:12.565Z,2.80
2023-02-17T16:15:39.673Z,2.55
2023-02-17T16:18:06.789Z,3.00
2023-02-17T16:23:01.170Z,2.60
2023-02-17T16:25:28.259Z,2.58
2023-02-17T16:27:55.343Z,2.70
2023-02-17T16:30:22.534Z,2.95
2023-02-17T16:32:49.678Z,2.92
2023-02-17T16:35:16.835Z,2.50
2023-02-17T16:37:43.930Z,2.50
2023-02-17T16:40:11.004Z,2.30
2023-02-17T16:42:38.120Z,2.20
2023-02-17T16:45:05.278Z,2.55
2023-02-17T16:50:19.570Z,2.30
2023-02-17T16:52:46.687Z,2.08
2023-02-17T16:55:13.864Z,2.45
2023-02-17T16:57:40.958Z,2.65
2023-02-17T17:00:08.148Z,2.55
2023-02-17T17:02:35.325Z,2.50
2023-02-17T17:05:02.518Z,2.25
2023-02-17T17:07:29.613Z,2.40
2023-02-17T17:10:15.157Z,2.30
2023-02-17T17:12:43.209Z,2.45
2023-02-17T17:15:10.325Z,2.20
2023-02-17T17:17:37.490Z,2.15
2023-02-17T17:20:04.578Z,2.30
2023-02-17T17:22:31.644Z,2.22
2023-02-17T17:24:59.646Z,2.20
2023-02-17T17:27:26.752Z,2.35
2023-02-17T17:29:53.835Z,2.10
2023-02-17T17:32:21.058Z,2.20
2023-02-17T17:34:51.998Z,2.30
2023-02-17T17:37:19.139Z,2.30
2023-02-17T17:39:46.274Z,2.00
2023-02-17T17:42:13.659Z,2.10
2023-02-17T17:44:40.836Z,2.28
2023-02-17T17:47:07.989Z,2.03
2023-02-17T17:49:35.120Z,2.17
2023-02-17T17:52:02.215Z,2.60
2023-02-17T17:54:29.331Z,2.13
2023-02-17T17:56:56.416Z,2.33
2023-02-17T17:59:23.486Z,2.00
2023-02-17T18:01:50.573Z,1.88
2023-02-17T18:04:17.906Z,2.08
2023-02-17T18:06:45.048Z,2.13
2023-02-17T18:09:25.684Z,2.55
2023-02-17T18:11:57.271Z,2.27
2023-02-17T18:14:25.200Z,2.00
2023-02-17T18:16:52.276Z,2.10
2023-02-17T18:19:19.412Z,2.45
2023-02-17T18:21:47.767Z,2.10
2023-02-17T18:24:14.878Z,2.70
2023-02-17T18:26:42.179Z,2.03
2023-02-17T18:29:09.353Z,2.20
2023-02-17T18:31:36.809Z,2.20
2023-02-17T18:34:04.025Z,1.90
2023-02-17T18:36:31.102Z,1.90
2023-02-17T18:38:58.235Z,2.10
2023-02-17T18:41:25.348Z,2.00
2023-02-17T18:43:52.497Z,1.90
2023-02-17T18:46:19.601Z,1.77
2023-02-17T18:48:46.731Z,1.85
2023-02-17T18:51:13.852Z,2.10
2023-02-17T18:53:40.967Z,1.75
2023-02-17T18:56:08.394Z,1.88
2023-02-17T18:58:36.130Z,1.75
2023-02-17T19:01:03.273Z,1.77
2023-02-17T19:03:30.413Z,1.60
2023-02-17T19:05:57.498Z,2.10
2023-02-17T19:08:24.571Z,1.80
2023-02-17T19:10:51.731Z,1.80
2023-02-17T19:13:19.161Z,1.60
2023-02-17T19:15:46.464Z,1.70
2023-02-17T19:18:13.596Z,1.65
2023-02-17T19:20:40.666Z,2.15
2023-02-17T19:23:07.753Z,1.80
2023-02-17T19:25:37.833Z,1.92
2023-02-17T19:28:04.954Z,1.73
2023-02-17T19:33:19.072Z,1.50
2023-02-17T19:35:46.178Z,1.70
2023-02-17T19:38:13.296Z,1.73
2023-02-17T19:40:40.406Z,1.73
2023-02-17T19:43:07.488Z,1.58
2023-02-17T19:45:34.674Z,1.67
2023-02-17T19:48:01.831Z,1.85
2023-02-17T19:50:28.963Z,1.70
2023-02-17T19:52:56.181Z,1.50
2023-02-17T19:55:23.381Z,1.58
2023-02-17T19:57:50.456Z,1.30
2023-02-17T20:00:17.525Z,1.70
2023-02-17T20:02:44.670Z,1.50
2023-02-17T20:05:11.908Z,1.27
2023-02-17T20:07:39.077Z,1.30
2023-02-17T20:10:06.208Z,1.27
2023-02-17T20:15:20.429Z,1.50
2023-02-17T20:17:47.524Z,1.70
2023-02-17T20:20:14.746Z,1.65
2023-02-17T20:22:41.828Z,1.83
2023-02-17T20:25:08.917Z,1.70
2023-02-17T20:30:23.053Z,1.30
2023-02-17T20:32:50.183Z,1.45
2023-02-17T20:35:17.407Z,1.63
2023-02-17T20:37:44.532Z,1.70
2023-02-17T20:40:11.639Z,1.83
2023-02-17T20:42:38.736Z,2.00
2023-02-17T20:45:05.841Z,1.42
2023-02-17T20:47:32.939Z,1.40
2023-02-17T20:50:00.054Z,1.50
2023-02-17T20:52:27.133Z,1.70
2023-02-17T20:54:54.389Z,1.60
2023-02-17T20:57:21.455Z,1.70
2023-02-17T20:59:48.540Z,2.10
2023-02-17T21:02:15.611Z,1.40
2023-02-17T21:04:42.771Z,1.75
2023-02-17T21:07:09.854Z,1.40
2023-02-17T21:12:23.993Z,1.48
2023-02-17T21:14:51.085Z,1.95
2023-02-17T21:17:18.960Z,1.65
2023-02-17T21:22:33.039Z,1.65
2023-02-17T21:25:00.161Z,1.92
2023-02-17T21:27:27.263Z,2.00
2023-02-17T21:29:54.348Z,1.70
2023-02-17T21:32:21.430Z,2.22
2023-02-17T21:34:48.657Z,2.22
2023-02-17T21:37:15.737Z,2.35
2023-02-17T21:42:48.497Z,2.17
2023-02-17T21:45:15.570Z,2.20
2023-02-17T21:47:42.636Z,2.60
2023-02-17T21:50:09.756Z,2.20
2023-02-17T21:58:10.956Z,1.92
2023-02-17T22:00:38.446Z,1.90
2023-02-17T22:03:05.697Z,2.15
2023-02-17T22:05:32.785Z,2.33
2023-02-17T22:07:59.860Z,2.03
2023-02-17T22:10:26.938Z,2.10
2023-02-17T22:12:54.019Z,2.38
2023-02-17T22:15:21.081Z,2.05
2023-02-17T22:17:48.156Z,2.25
2023-02-17T22:20:15.509Z,1.90
2023-02-17T22:22:42.618Z,2.00
2023-02-17T22:25:09.746Z,2.65
2023-02-17T22:27:37.611Z,2.50
2023-02-17T22:30:04.751Z,2.40
2023-02-17T22:32:31.846Z,2.83
2023-02-17T22:34:58.910Z,2.53
2023-02-17T22:37:25.977Z,2.58
2023-02-17T22:39:53.751Z,2.50
2023-02-17T22:42:20.911Z,2.10
2023-02-17T22:44:48.002Z,2.20
2023-02-17T22:47:15.148Z,2.13
2023-02-17T22:49:42.227Z,2.00
2023-02-17T22:52:09.392Z,2.20
2023-02-17T22:57:24.165Z,2.40
2023-02-17T22:59:51.257Z,1.88
2023-02-17T23:02:18.343Z,2.00
2023-02-17T23:04:45.499Z,2.15
2023-02-17T23:07:12.600Z,2.03
2023-02-17T23:09:39.706Z,1.83
2023-02-17T23:12:06.786Z,2.00
2023-02-17T23:17:20.869Z,2.03
2023-02-17T23:19:47.969Z,2.13
2023-02-17T23:22:16.263Z,2.10
2023-02-17T23:27:30.411Z,2.25
2023-02-17T23:29:57.500Z,2.10
2023-02-17T23:32:24.625Z,1.98
2023-02-17T23:34:51.705Z,1.90
2023-02-17T23:37:18.778Z,1.92
2023-02-17T23:39:45.837Z,2.22
2023-02-17T23:42:12.903Z,1.92
2023-02-17T23:44:39.976Z,2.00
2023-02-17T23:47:07.061Z,1.73
2023-02-17T23:49:34.161Z,1.65
2023-02-17T23:52:01.233Z,1.52
2023-02-17T23:54:28.828Z,1.83
2023-02-17T23:56:55.903Z,1.67
2023-02-17T23:59:22.981Z,1.80
